Home > Products > Valid Products > MTR

000
SAUS43 KDDC 282357
MTRP28
METAR KP28 282356Z AUTO 15005KT 12/02 A2981 RMK AO1 SLP100 T01220022
10178 20122 55000





000
SAUS43 KDDC 282258
MTRP28
METAR KP28 282256Z AUTO 17008KT 16/02 A2980 RMK AO1 SLP093 T01560017





000
SAUS43 KDDC 282157
MTRP28
METAR KP28 282156Z AUTO 17011KT 17/01 A2980 RMK AO1 SLP093 T01720011





000
SAUS43 KDDC 282058
MTRP28
METAR KP28 282056Z AUTO 19012KT 17/01 A2981 RMK AO1 SLP094 T01720011
56028





000
SAUS43 KDDC 281958
MTRP28
METAR KP28 281956Z AUTO 18011KT 17/01 A2983 RMK AO1 SLP102 T01670006





000
SAUS43 KDDC 281857
MTRP28
METAR KP28 281856Z AUTO 20010KT 15/01 A2986 RMK AO1 SLP114 T01500006





000
SAUS43 KDDC 281758
MTRP28
METAR KP28 281756Z AUTO 19009KT 12/01 A2989 RMK AO1 SLP127 T01170006
10122 21022 58026





000
SAUS43 KDDC 281658
MTRP28
METAR KP28 281656Z AUTO 19008KT 09/01 A2995 RMK AO1 SLP148 T00890006





000
SAUS43 KDDC 281557
MTRP28
METAR KP28 281556Z AUTO 18009KT 07/00 A2997 RMK AO1 SLP153 T00670000





000
SAUS43 KDDC 281458
MTRP28
METAR KP28 281456Z AUTO 17006KT 03/M01 A2998 RMK AO1 SLP159
T00331011 56010





000
SAUS43 KDDC 281357
MTRP28
METAR KP28 281356Z AUTO 00000KT 00/M03 A2999 RMK AO1 SLP164
T00001033





000
SAUS43 KDDC 281258
MTRP28
METAR KP28 281256Z AUTO 00000KT M02/M04 A3000 RMK AO1 SLP168
T10171039





000
SAUS43 KDDC 281157
MTRP28
METAR KP28 281156Z AUTO 00000KT M02/M04 A3001 RMK AO1 SLP172
T10221044 10022 21022 58018





000
SAUS43 KDDC 281058
MTRP28
METAR KP28 281056Z AUTO 16005KT 01/M03 A3002 RMK AO1 SLP175
T00061033





000
SAUS43 KDDC 280958
MTRP28
METAR KP28 280956Z AUTO 16003KT 01/M03 A3005 RMK AO1 SLP184
T00111033





000
SAUS43 KDDC 280857
MTRP28
METAR KP28 280856Z AUTO 16005KT 02/M03 A3007 RMK AO1 SLP188
T00171028 56021





000
SAUS43 KDDC 280758
MTRP28
METAR KP28 280756Z AUTO 16003KT 02/M03 A3008 RMK AO1 SLP194
T00171033





000
SAUS43 KDDC 280657
MTRP28
METAR KP28 280656Z AUTO 16005KT 02/M03 A3010 RMK AO1 SLP202
T00171033





000
SAUS43 KDDC 280557
MTRP28
METAR KP28 280556Z AUTO 16006KT 02/M04 A3013 RMK AO1 SLP213
T00221039 10061 20022 400891072 58017





000
SAUS43 KDDC 280458
MTRP28
METAR KP28 280456Z AUTO 16007KT 03/M04 A3015 RMK AO1 SLP221
T00281039





000
SAUS43 KDDC 280358
MTRP28
METAR KP28 280356Z AUTO 16010KT 04/M04 A3016 RMK AO1 SLP225
T00391039





000
SAUS43 KDDC 280358
MTRP28
METAR KP28 280356Z AUTO 16010KT 04/M04 A3016 RMK AO1 SLP225
T00391039





000
SAUS43 KDDC 280258
MTRP28
METAR KP28 280256Z AUTO 17012G18KT 05/M04 A3018 RMK AO1 SLP233
T00501039 58020





000
SAUS43 KDDC 280158
MTRP28
METAR KP28 280156Z AUTO 17011KT 06/M04 A3021 RMK AO1 SLP245
T00561044





000
SAUS43 KDDC 280058
MTRP28
METAR KP28 280056Z AUTO 16009G17KT 06/M04 A3023 RMK AO1 SLP249
T00611044





000
SAUS43 KDDC 272357
MTRP28
METAR KP28 272356Z AUTO 13007KT 06/M06 A3025 RMK AO1 SLP257
T00611056 10089 20039 55012





000
SAUS43 KDDC 272258
MTRP28
METAR KP28 272256Z AUTO 16007G15KT 08/M06 A3024 RMK AO1 SLP252
T00831061





000
SAUS43 KDDC 272158
MTRP28
METAR KP28 272156Z AUTO 17014G19KT 09/M07 A3027 RMK AO1 SLP260
T00891067





000
SAUS43 KDDC 272057
MTRP28
METAR KP28 272056Z AUTO 17011G19KT 08/M07 A3028 RMK AO1 SLP266
T00781067 56049





000
SAUS43 KDDC 271958
MTRP28
METAR KP28 271956Z AUTO 17014G21KT 08/M06 A3032 RMK AO1 SLP280
T00781061





000
SAUS43 KDDC 271858
MTRP28
METAR KP28 271856Z AUTO 17012G21KT 05/M06 A3037 RMK AO1 SLP297
T00501056





000
SAUS43 KDDC 271757
MTRP28
METAR KP28 271756Z AUTO 18014KT 04/M06 A3043 RMK AO1 SLP319
T00391061 10039 21072 58021





000
SAUS43 KDDC 271658
MTRP28
METAR KP28 271656Z AUTO 17011G17KT 02/M06 A3048 RMK AO1 SLP338
T00221061





000
SAUS43 KDDC 271557
MTRP28
METAR KP28 271556Z AUTO 17006KT 01/M06 A3050 RMK AO1 SLP341
T00061056





000
SAUS43 KDDC 271458
MTRP28
METAR KP28 271456Z AUTO 00000KT M03/M06 A3049 RMK AO1 SLP342
T10331061 50008





000
SAUS43 KDDC 271357
MTRP28
METAR KP28 271356Z AUTO 02003KT M07/M08 A3050 RMK AO1 SLP345
T10721083





000
SAUS43 KDDC 271258
MTRP28
METAR KP28 271256Z AUTO 00000KT M06/M08 A3049 RMK AO1 SLP340
T10611078





000
SAUS43 KDDC 271157
MTRP28
METAR KP28 271156Z AUTO 01003KT M07/M08 A3047 RMK AO1 SLP335
T10721083 11022 21072 58002





000
SAUS43 KDDC 271058
MTRP28
METAR KP28 271056Z AUTO 00000KT M05/M07 A3048 RMK AO1 SLP335
T10501072





000
SAUS43 KDDC 270957
MTRP28
METAR KP28 270956Z AUTO 00000KT M05/M07 A3048 RMK AO1 SLP335
T10501072





000
SAUS43 KDDC 270957
MTRP28
METAR KP28 270956Z AUTO 00000KT M05/M07 A3048 RMK AO1 SLP335
T10501072





000
SAUS43 KDDC 270858
MTRP28
METAR KP28 270856Z AUTO 03005KT M05/M07 A3048 RMK AO1 SLP333
T10501072 53007





000
SAUS43 KDDC 270758
MTRP28
METAR KP28 270756Z AUTO 00000KT M02/M07 A3047 RMK AO1 SLP327
T10221067





000
SAUS43 KDDC 270657
MTRP28
METAR KP28 270656Z AUTO 30003KT M02/M06 A3046 RMK AO1 SLP326
T10221061





000
SAUS43 KDDC 270557
MTRP28
METAR KP28 270556Z AUTO 01004KT M03/M07 A3046 RMK AO1 SLP324
T10331067 10044 21033 401001033 51023





000
SAUS43 KDDC 270458
MTRP28
METAR KP28 270456Z AUTO 35004KT M01/M06 A3043 RMK AO1 SLP315
T10111061





000
SAUS43 KDDC 270358
MTRP28
METAR KP28 270356Z AUTO 00000KT 01/M06 A3042 RMK AO1 SLP310
T00061061





000
SAUS43 KDDC 270358
MTRP28
METAR KP28 270356Z AUTO 00000KT 01/M06 A3042 RMK AO1 SLP310
T00061061





000
SAUS43 KDDC 270258
MTRP28
METAR KP28 270256Z AUTO 35004KT 02/M06 A3038 RMK AO1 SLP297
T00171056 50019





000
SAUS43 KDDC 270158
MTRP28
METAR KP28 270156Z AUTO 36005KT 02/M06 A3039 RMK AO1 SLP299
T00221061





000
SAUS43 KDDC 270058
MTRP28
METAR KP28 270056Z AUTO 35007KT 03/M06 A3036 RMK AO1 SLP289
T00331061





000
SAUS43 KDDC 262357
MTRP28
METAR KP28 262356Z AUTO 36012KT 04/M06 A3032 RMK AO1 SLP276
T00441061 10100 20044 53021





000
SAUS43 KDDC 262258
MTRP28
METAR KP28 262256Z AUTO 34014G23KT 06/M07 A3030 RMK AO1 SLP267
T00611067





000
SAUS43 KDDC 262157
MTRP28
METAR KP28 262156Z AUTO 34015G24KT 07/M07 A3028 RMK AO1 SLP256
T00721072





000
SAUS43 KDDC 262157
MTRP28
METAR KP28 262156Z AUTO 34015G24KT 07/M07 A3028 RMK AO1 SLP256
T00721072





000
SAUS43 KDDC 262058
MTRP28
METAR KP28 262056Z AUTO 35018G26KT 08/M07 A3026 RMK AO1 PK WND
33026/2052 SLP251 T00781067 53025





000
SAUS43 KDDC 261958
MTRP28
METAR KP28 261956Z AUTO 34020G27KT 09/M07 A3022 RMK AO1 PK WND
33032/1946 SLP242 T00941072





000
SAUS43 KDDC 261857
MTRP28
METAR KP28 261856Z AUTO 32021G30KT 08/M06 A3021 RMK AO1 PK WND
32031/1814 SLP237 T00831056





000
SAUS43 KDDC 261757
MTRP28
METAR KP28 261756Z AUTO 33019G30KT 09/M04 A3018 RMK AO1 PK WND
34034/1727 SLP227 T00941039 10094 20061 50014





000
SAUS43 KDDC 261657
MTRP28
METAR KP28 261656Z AUTO 34020G27KT 09/M03 A3019 RMK AO1 PK WND
32030/1640 SLP228 T00891028





000
SAUS43 KDDC 261557
MTRP28
METAR KP28 261556Z AUTO 33019G30KT 08/M02 A3016 RMK AO1 PK WND
35030/1550 SLP220 T00831022





000
SAUS43 KDDC 261458
MTRP28
METAR KP28 261456Z AUTO 32020G26KT 08/M01 A3014 RMK AO1 PK WND
33026/1456 SLP212 T00781011 51036





000
SAUS43 KDDC 261357
MTRP28
METAR KP28 261356Z AUTO 33013G20KT 07/00 A3011 RMK AO1 SLP203
T00670000





000
SAUS43 KDDC 261258
MTRP28
METAR KP28 261256Z AUTO 34014KT 07/01 A3008 RMK AO1 SLP191 T00670006





000
SAUS43 KDDC 261157
MTRP28
METAR KP28 261156Z AUTO 34015G21KT 07/01 A3003 RMK AO1 SLP172 7////
T00720011 10083 20000 53017





000
SAUS43 KDDC 261058
MTRP28
METAR KP28 261056Z AUTO 36017KT 08/00 A2999 RMK AO1 SLP158 T00780000





000
SAUS43 KDDC 260957
MTRP28
METAR KP28 260956Z AUTO 35015KT 08/M01 A3001 RMK AO1 SLP162
T00831006





000
SAUS43 KDDC 260957
MTRP28
METAR KP28 260956Z AUTO 35015KT 08/M01 A3001 RMK AO1 SLP162
T00831006





000
SAUS43 KDDC 260858
MTRP28
METAR KP28 260856Z AUTO 36016G22KT 07/00 A2998 RMK AO1 SLP153
T00720000 53014





000
SAUS43 KDDC 260758
MTRP28
METAR KP28 260756Z AUTO 34004KT 01/M02 A2997 RMK AO1 SLP154
T00111022





000
SAUS43 KDDC 260657
MTRP28
METAR KP28 260656Z AUTO 12003KT 03/M03 A2993 RMK AO1 SLP142
T00281028





000
SAUS43 KDDC 260558
MTRP28
METAR KP28 260556Z AUTO 12003KT 03/M03 A2993 RMK AO1 SLP142
T00281028 10083 20028 401061039 56015





000
SAUS43 KDDC 260458
MTRP28
METAR KP28 260456Z AUTO 16005KT 04/M03 A2994 RMK AO1 SLPNO T00391028





000
SAUS43 KDDC 260357
MTRP28
METAR KP28 260356Z AUTO 15005KT 04/M03 A2996 RMK AO1 SLP155
T00441028





000
SAUS43 KDDC 260357
MTRP28
METAR KP28 260356Z AUTO 15005KT 04/M03 A2996 RMK AO1 SLP155
T00441028





000
SAUS43 KDDC 260258
MTRP28
METAR KP28 260256Z AUTO 17009KT 05/M03 A2998 RMK AO1 SLP161
T00501028 58003





000
SAUS43 KDDC 260158
MTRP28
METAR KP28 260156Z AUTO 14010KT 07/M03 A2997 RMK AO1 SLP160
T00671033





000
SAUS43 KDDC 260057
MTRP28
METAR KP28 260056Z AUTO 15007KT 08/M04 A2999 RMK AO1 SLP166
T00781044





    US Dept of Commerce
    National Oceanic and Atmospheric Administration
    National Weather Service
    1325 East West Highway
    Silver Spring, MD 20910
    Page Author: NWS Internet Services Team
Disclaimer
Information Quality
Credits
Glossary
Privacy Policy
Freedom of Information Act (FOIA)
About Us
Career Opportunities